x

Halifax Harbour (44258) Wave Buoy

10:00pm - Thu 31st Jul 2014 All times are EDT. -4 hours from GMT.

  • Sig Wave height 5.2ft
  • Peak Period 9s
  • Wind
    2mph, 4mph gusts
  • Air Temp 61°f
  • Sea Pressure 1023.5mb
  • Halifax Harbour
  • Halifax Harbour

More Historic Weather Station data

Upgrade to MSW Pro to gain access to the past 30 days of data for over 8000 Wavebouys and Weather Stations around the globe.

Join Pro

Comparision Forecast

View Surf forecast
   
Thu 07/31 10:00pm 5ft 9s 2 4 mph 1023.5mb 61f
9:00pm 5ft 8s 2 4 mph 1023.3mb 61f
8:00pm 5ft 9s 4
mph
1022.8mb 61f
6:00pm 5ft 10s 7 9 mph 1022.8mb 61f
5:00pm 5.5ft 10s 9 11 mph 1022.5mb 61f
4:00pm 5.5ft 9s 7 9 mph 1022.4mb 60f
3:00pm 5ft 9s 9
mph
1022.6mb 60f
2:00pm 5ft 9s 7 9 mph 1022.5mb 60f
1:00pm 5ft 9s 9 11 mph 1022.2mb 60f
12:00pm 5ft 9s 9 11 mph 1021.9mb 59f
11:00am 5ft 8s 11 13 mph 1021.4mb 58f
10:00am 5.5ft 10s 9 11 mph 1021.3mb 58f
9:00am 5.5ft 10s 9
mph
1020.3mb 59f
8:00am 5.5ft 9s 9 11 mph 1020.4mb 59f
7:00am 6ft 10s 11 13 mph 1019.9mb 60f
6:00am 6ft 10s 11 13 mph 1019.4mb 60f
5:00am 6ft 9s 13 16 mph 1018.9mb 61f
4:00am 5.5ft 10s 13 18 mph 1018.6mb 62f
3:00am 6ft 10s 16 18 mph 1017.9mb 64f
2:00am 5.5ft 10s 11 13 mph 1017.9mb 63f
1:00am 6ft 10s 7 9 mph 1018.4mb 63f
12:00am 6ft 10s 11 13 mph 1018.3mb 63f
Wed 07/30 11:00pm 5ft 10s 11 13 mph 1018.8mb 63f
10:00pm 5ft 9s 11 13 mph 1019.3mb 62f
9:00pm 6ft 10s 9 11 mph 1019.1mb 62f
8:00pm 5.5ft 9s 7 11 mph 1019.6mb 62f
7:00pm 5.5ft 10s 7
mph
1019.3mb 62f
6:00pm 5.5ft 10s 11 13 mph 1018.8mb 63f
5:00pm 6ft 9s 13
mph
1018.5mb 63f
4:00pm 6ft 10s 9 11 mph 1018.8mb 61f
3:00pm 6.5ft 10s 9 11 mph 1018.6mb 60f
2:00pm 7ft 9s 9
mph
1019.1mb 60f
1:00pm 6ft 10s 7 9 mph 1019.5mb 59f
12:00pm 6.5ft 10s 9 11 mph 1019.6mb 59f
11:00am 7ft 9s 4 7 mph 1020mb 58f
10:00am 6ft 10s 2 4 mph 1019.5mb 58f
9:00am 6ft 10s 2 4 mph 1019.3mb 56f
8:00am 6ft 10s 2 4 mph 1018.7mb 56f
7:00am 6ft 10s 2
mph
1018.5mb 56f
6:00am 6ft 10s 4
mph
1018.2mb 56f
5:00am 6ft 10s 4 7 mph 1017.8mb 56f
4:00am 6ft 10s 4 7 mph 1017.3mb 57f
3:00am 6ft 10s 4 7 mph 1017.1mb 57f
2:00am 7ft 10s 7 9 mph 1016.8mb 58f
1:00am 6ft 9s 4 7 mph 1016.1mb 58f
12:00am 6.5ft 9s 9 13 mph 1015.6mb 59f
Tue 07/29 11:00pm 6.5ft 9s 9
mph
1015.3mb 58f
10:00pm 7ft 8s 9
mph
1014.4mb 59f
9:00pm 6.5ft 10s 4 7 mph 1014.2mb 59f
8:00pm 8ft 8s 2 4 mph 1013.8mb 59f
7:00pm 7ft 9s 9 11 mph 1013.4mb 60f
6:00pm 7ft 10s 11 13 mph 1013.4mb 61f
5:00pm 6.5ft 9s 13
mph
1012.9mb 60f
4:00pm 6.5ft 8s 13 16 mph 1012.7mb 60f
3:00pm 6.5ft 8s 13 16 mph 1011.8mb 60f
2:00pm 6ft 8s 13 16 mph 1011.6mb 60f
1:00pm 6ft 7s 16 18 mph 1010.9mb 61f
12:00pm 6ft 7s 16 18 mph 1010.6mb 61f
11:00am 6ft 8s 16
mph
1010.2mb 60f
10:00am 6.5ft 8s 13 16 mph 1009.6mb 60f
9:00am 7ft 7s 18 20 mph 1009.2mb 61f
8:00am 7ft 7s 13 16 mph 1008.9mb 61f
7:00am 7ft 7s 16 18 mph 1008.5mb 61f
6:00am 6.5ft 7s 18 22 mph 1008mb 61f
5:00am 6ft 7s 18 20 mph 1007.5mb 61f
4:00am 5ft 7s 20 25 mph 1006.7mb 62f
3:00am 4.5ft 5s 18 20 mph 1006mb 62f
2:00am 3.5ft 6s 4 7 mph 1006.5mb 61f
1:00am 4ft 6s 4 7 mph 1006.5mb 60f
12:00am 4ft 6s 13
mph
1005.7mb 62f
Mon 07/28 11:00pm 4ft 7s 13
mph
1005.8mb 62f
10:00pm 4ft 7s 13
mph
1007.3mb 63f
9:00pm 3.5ft 5s 16
mph
1007.3mb 63f
8:00pm 3.5ft 6s 16 18 mph 1007.9mb 63f
7:00pm 3.5ft 7s 13 18 mph 1009mb 62f
6:00pm 3.5ft 5s 11 13 mph 1008.7mb 62f
5:00pm 3.5ft 7s 11 13 mph 1009.1mb 62f
4:00pm 3.5ft 7s 7 9 mph 1010mb 61f
3:00pm 3.5ft 7s 7 9 mph 1009.9mb 61f
2:00pm 3ft 8s 9
mph
1010.4mb 61f
1:00pm 3ft 7s 11
mph
1010.5mb 61f
12:00pm 3.5ft 8s 11
mph
1010.4mb 60f
11:00am 3.5ft 8s 11 13 mph 1010.8mb 60f
10:00am 3ft 7s 13
mph
1010.8mb 60f
9:00am 3.5ft 8s 11 13 mph 1010.7mb 60f
8:00am 3.5ft 7s 13 16 mph 1010.9mb 60f
7:00am 3ft 8s 11 13 mph 1010.9mb 60f
6:00am 3.5ft 7s 11
mph
1011mb 59f
5:00am 3.5ft 8s 11 13 mph 1011mb 59f
4:00am 3ft 8s 9 11 mph 1010.9mb 59f